sensor_id;sensor_type;location;lat;lon;timestamp;temperature;humidity
1447;DHT22;717;51.522;7.266;2023-03-07T00:00:00;6.50;99.90
1447;DHT22;717;51.522;7.266;2023-03-07T00:02:28;6.50;99.90
1447;DHT22;717;51.522;7.266;2023-03-07T00:04:59;6.50;99.90
1447;DHT22;717;51.522;7.266;2023-03-07T00:07:28;6.50;99.90
1447;DHT22;717;51.522;7.266;2023-03-07T00:09:57;6.50;99.90
1447;DHT22;717;51.522;7.266;2023-03-07T00:12:26;6.50;99.90
1447;DHT22;717;51.522;7.266;2023-03-07T00:14:54;6.60;99.90
1447;DHT22;717;51.522;7.266;2023-03-07T00:17:23;6.60;99.90
1447;DHT22;717;51.522;7.266;2023-03-07T00:19:51;6.60;99.90
1447;DHT22;717;51.522;7.266;2023-03-07T00:22:23;6.60;99.90
1447;DHT22;717;51.522;7.266;2023-03-07T00:24:51;6.60;99.90
1447;DHT22;717;51.522;7.266;2023-03-07T00:27:20;6.70;99.90
1447;DHT22;717;51.522;7.266;2023-03-07T00:29:48;6.70;99.90
1447;DHT22;717;51.522;7.266;2023-03-07T00:32:17;6.70;99.90
1447;DHT22;717;51.522;7.266;2023-03-07T00:34:46;6.70;99.90
1447;DHT22;717;51.522;7.266;2023-03-07T00:37:14;6.80;99.90
1447;DHT22;717;51.522;7.266;2023-03-07T00:39:45;6.90;99.90
1447;DHT22;717;51.522;7.266;2023-03-07T00:42:14;6.90;99.90
1447;DHT22;717;51.522;7.266;2023-03-07T00:44:43;6.90;99.90
1447;DHT22;717;51.522;7.266;2023-03-07T00:47:11;7.00;99.90
1447;DHT22;717;51.522;7.266;2023-03-07T00:49:40;7.00;99.90
1447;DHT22;717;51.522;7.266;2023-03-07T00:52:09;7.00;99.90
1447;DHT22;717;51.522;7.266;2023-03-07T00:54:37;7.00;99.90
1447;DHT22;717;51.522;7.266;2023-03-07T00:57:08;7.10;99.90
1447;DHT22;717;51.522;7.266;2023-03-07T00:59:37;7.10;99.90
1447;DHT22;717;51.522;7.266;2023-03-07T01:02:06;7.00;99.90
1447;DHT22;717;51.522;7.266;2023-03-07T01:04:34;7.10;99.90
1447;DHT22;717;51.522;7.266;2023-03-07T01:07:03;7.10;99.90
1447;DHT22;717;51.522;7.266;2023-03-07T01:09:31;7.10;99.90
1447;DHT22;717;51.522;7.266;2023-03-07T01:12:00;7.10;99.90
1447;DHT22;717;51.522;7.266;2023-03-07T01:14:34;7.20;99.90
1447;DHT22;717;51.522;7.266;2023-03-07T01:17:03;7.20;99.90
1447;DHT22;717;51.522;7.266;2023-03-07T01:19:31;7.10;99.90
1447;DHT22;717;51.522;7.266;2023-03-07T01:22:00;7.20;99.90
1447;DHT22;717;51.522;7.266;2023-03-07T01:24:28;7.30;99.90
1447;DHT22;717;51.522;7.266;2023-03-07T01:26:57;7.30;99.90
1447;DHT22;717;51.522;7.266;2023-03-07T01:29:25;7.30;99.90
1447;DHT22;717;51.522;7.266;2023-03-07T01:31:57;7.30;99.90
1447;DHT22;717;51.522;7.266;2023-03-07T01:34:25;7.30;99.90
1447;DHT22;717;51.522;7.266;2023-03-07T01:36:54;7.30;99.90
1447;DHT22;717;51.522;7.266;2023-03-07T01:39:22;7.40;99.90
1447;DHT22;717;51.522;7.266;2023-03-07T01:41:51;7.40;99.90
1447;DHT22;717;51.522;7.266;2023-03-07T01:44:21;7.40;99.90
1447;DHT22;717;51.522;7.266;2023-03-07T01:46:50;7.30;99.90
1447;DHT22;717;51.522;7.266;2023-03-07T01:49:28;7.30;99.90
1447;DHT22;717;51.522;7.266;2023-03-07T01:52:00;7.20;99.90
1447;DHT22;717;51.522;7.266;2023-03-07T01:54:31;7.20;99.90
1447;DHT22;717;51.522;7.266;2023-03-07T01:57:01;7.30;99.90
1447;DHT22;717;51.522;7.266;2023-03-07T01:59:32;7.30;99.90
1447;DHT22;717;51.522;7.266;2023-03-07T02:02:05;7.40;99.90
1447;DHT22;717;51.522;7.266;2023-03-07T02:04:41;7.40;99.90
1447;DHT22;717;51.522;7.266;2023-03-07T02:07:10;7.40;99.90
1447;DHT22;717;51.522;7.266;2023-03-07T02:09:39;7.40;99.90
1447;DHT22;717;51.522;7.266;2023-03-07T02:12:09;7.30;99.90
1447;DHT22;717;51.522;7.266;2023-03-07T02:14:38;7.30;99.90
1447;DHT22;717;51.522;7.266;2023-03-07T02:17:09;7.40;99.90
1447;DHT22;717;51.522;7.266;2023-03-07T02:19:51;7.40;99.90
1447;DHT22;717;51.522;7.266;2023-03-07T02:22:21;7.50;99.90
1447;DHT22;717;51.522;7.266;2023-03-07T02:24:52;7.40;99.90
1447;DHT22;717;51.522;7.266;2023-03-07T02:27:27;7.40;99.90
1447;DHT22;717;51.522;7.266;2023-03-07T02:29:57;7.40;99.90
1447;DHT22;717;51.522;7.266;2023-03-07T02:32:26;7.50;99.90
1447;DHT22;717;51.522;7.266;2023-03-07T02:34:55;7.60;99.90
1447;DHT22;717;51.522;7.266;2023-03-07T02:37:26;7.60;99.90
1447;DHT22;717;51.522;7.266;2023-03-07T02:39:58;7.70;99.90
1447;DHT22;717;51.522;7.266;2023-03-07T02:42:34;7.60;99.90
1447;DHT22;717;51.522;7.266;2023-03-07T02:45:08;7.70;99.90
1447;DHT22;717;51.522;7.266;2023-03-07T02:47:37;7.70;99.90
1447;DHT22;717;51.522;7.266;2023-03-07T02:50:07;7.80;99.90
1447;DHT22;717;51.522;7.266;2023-03-07T02:52:36;7.70;99.90
1447;DHT22;717;51.522;7.266;2023-03-07T02:55:06;7.60;99.90
1447;DHT22;717;51.522;7.266;2023-03-07T02:57:38;7.60;99.90
1447;DHT22;717;51.522;7.266;2023-03-07T03:00:08;7.70;99.90
1447;DHT22;717;51.522;7.266;2023-03-07T03:02:37;7.70;99.90
1447;DHT22;717;51.522;7.266;2023-03-07T03:05:07;7.70;99.90
1447;DHT22;717;51.522;7.266;2023-03-07T03:07:35;7.70;99.90
1447;DHT22;717;51.522;7.266;2023-03-07T03:10:05;7.70;99.90
1447;DHT22;717;51.522;7.266;2023-03-07T03:12:34;7.70;99.90
1447;DHT22;717;51.522;7.266;2023-03-07T03:15:06;7.80;99.90
1447;DHT22;717;51.522;7.266;2023-03-07T03:17:35;7.80;99.90
1447;DHT22;717;51.522;7.266;2023-03-07T03:20:05;7.70;99.90
1447;DHT22;717;51.522;7.266;2023-03-07T03:22:36;7.70;99.90
1447;DHT22;717;51.522;7.266;2023-03-07T03:25:06;7.70;99.90
1447;DHT22;717;51.522;7.266;2023-03-07T03:27:36;7.70;99.90
1447;DHT22;717;51.522;7.266;2023-03-07T03:30:10;7.70;99.90
1447;DHT22;717;51.522;7.266;2023-03-07T03:32:39;7.70;99.90
1447;DHT22;717;51.522;7.266;2023-03-07T03:35:09;7.70;99.90
1447;DHT22;717;51.522;7.266;2023-03-07T03:37:38;7.70;99.90
1447;DHT22;717;51.522;7.266;2023-03-07T03:40:08;7.70;99.90
1447;DHT22;717;51.522;7.266;2023-03-07T03:42:39;7.60;99.90
1447;DHT22;717;51.522;7.266;2023-03-07T03:45:12;7.60;99.90
1447;DHT22;717;51.522;7.266;2023-03-07T03:47:42;7.60;99.90
1447;DHT22;717;51.522;7.266;2023-03-07T03:50:13;7.50;99.90
1447;DHT22;717;51.522;7.266;2023-03-07T03:52:41;7.50;99.90
1447;DHT22;717;51.522;7.266;2023-03-07T03:55:11;7.50;99.90
1447;DHT22;717;51.522;7.266;2023-03-07T03:57:40;7.50;99.90
1447;DHT22;717;51.522;7.266;2023-03-07T04:00:12;7.50;99.90
1447;DHT22;717;51.522;7.266;2023-03-07T04:02:41;7.40;99.90
1447;DHT22;717;51.522;7.266;2023-03-07T04:05:09;7.40;99.90
1447;DHT22;717;51.522;7.266;2023-03-07T04:07:38;7.40;99.90
1447;DHT22;717;51.522;7.266;2023-03-07T04:10:08;7.50;99.90
1447;DHT22;717;51.522;7.266;2023-03-07T04:12:37;7.50;99.90
1447;DHT22;717;51.522;7.266;2023-03-07T04:15:06;7.50;99.90
1447;DHT22;717;51.522;7.266;2023-03-07T04:17:39;7.50;99.90
1447;DHT22;717;51.522;7.266;2023-03-07T04:20:09;7.50;99.90
1447;DHT22;717;51.522;7.266;2023-03-07T04:22:41;7.60;99.90
1447;DHT22;717;51.522;7.266;2023-03-07T04:25:10;7.50;99.90
1447;DHT22;717;51.522;7.266;2023-03-07T04:27:39;7.30;99.90
1447;DHT22;717;51.522;7.266;2023-03-07T04:30:09;7.30;99.90
1447;DHT22;717;51.522;7.266;2023-03-07T04:32:40;7.50;99.90
1447;DHT22;717;51.522;7.266;2023-03-07T04:35:09;7.60;99.90
1447;DHT22;717;51.522;7.266;2023-03-07T04:37:38;7.60;99.90
1447;DHT22;717;51.522;7.266;2023-03-07T04:40:08;7.60;99.90
1447;DHT22;717;51.522;7.266;2023-03-07T04:42:36;7.70;99.90
1447;DHT22;717;51.522;7.266;2023-03-07T04:45:07;7.70;99.90
1447;DHT22;717;51.522;7.266;2023-03-07T04:47:35;7.60;99.90
1447;DHT22;717;51.522;7.266;2023-03-07T04:50:08;7.60;99.90
1447;DHT22;717;51.522;7.266;2023-03-07T04:52:36;7.60;99.90
1447;DHT22;717;51.522;7.266;2023-03-07T04:55:06;7.60;99.90
1447;DHT22;717;51.522;7.266;2023-03-07T04:57:34;7.70;99.90
1447;DHT22;717;51.522;7.266;2023-03-07T05:00:04;7.70;99.90
1447;DHT22;717;51.522;7.266;2023-03-07T05:02:35;7.60;99.90
1447;DHT22;717;51.522;7.266;2023-03-07T05:05:06;7.60;99.90
1447;DHT22;717;51.522;7.266;2023-03-07T05:07:35;7.70;99.90
1447;DHT22;717;51.522;7.266;2023-03-07T05:10:05;7.70;99.90
1447;DHT22;717;51.522;7.266;2023-03-07T05:12:34;7.70;99.90
1447;DHT22;717;51.522;7.266;2023-03-07T05:15:04;7.70;99.90
1447;DHT22;717;51.522;7.266;2023-03-07T05:17:32;7.70;99.90
1447;DHT22;717;51.522;7.266;2023-03-07T05:20:01;7.70;99.90
1447;DHT22;717;51.522;7.266;2023-03-07T05:22:32;7.50;99.90
1447;DHT22;717;51.522;7.266;2023-03-07T05:25:01;7.50;99.90
1447;DHT22;717;51.522;7.266;2023-03-07T05:27:29;7.40;99.90
1447;DHT22;717;51.522;7.266;2023-03-07T05:29:58;7.30;99.90
1447;DHT22;717;51.522;7.266;2023-03-07T05:32:27;7.30;99.90
1447;DHT22;717;51.522;7.266;2023-03-07T05:34:56;7.30;99.90
1447;DHT22;717;51.522;7.266;2023-03-07T05:37:24;7.20;99.90
1447;DHT22;717;51.522;7.266;2023-03-07T05:39:56;7.10;99.90
1447;DHT22;717;51.522;7.266;2023-03-07T05:42:24;7.10;99.90
1447;DHT22;717;51.522;7.266;2023-03-07T05:44:53;7.10;99.90
1447;DHT22;717;51.522;7.266;2023-03-07T05:47:21;7.20;99.90
1447;DHT22;717;51.522;7.266;2023-03-07T05:49:50;7.20;99.90
1447;DHT22;717;51.522;7.266;2023-03-07T05:52:19;7.30;99.90
1447;DHT22;717;51.522;7.266;2023-03-07T05:54:47;7.30;99.90
1447;DHT22;717;51.522;7.266;2023-03-07T05:57:18;7.30;99.90
1447;DHT22;717;51.522;7.266;2023-03-07T05:59:47;7.30;99.90
1447;DHT22;717;51.522;7.266;2023-03-07T06:02:16;7.30;99.90
1447;DHT22;717;51.522;7.266;2023-03-07T06:04:44;7.20;99.90
1447;DHT22;717;51.522;7.266;2023-03-07T06:07:14;7.20;99.90
1447;DHT22;717;51.522;7.266;2023-03-07T06:09:42;7.20;99.90
1447;DHT22;717;51.522;7.266;2023-03-07T06:12:11;7.10;99.90
1447;DHT22;717;51.522;7.266;2023-03-07T06:14:42;7.20;99.90
1447;DHT22;717;51.522;7.266;2023-03-07T06:17:11;7.20;99.90
1447;DHT22;717;51.522;7.266;2023-03-07T06:19:39;7.30;99.90
1447;DHT22;717;51.522;7.266;2023-03-07T06:22:08;7.30;99.90
1447;DHT22;717;51.522;7.266;2023-03-07T06:24:36;7.30;99.90
1447;DHT22;717;51.522;7.266;2023-03-07T06:27:05;7.20;99.90
1447;DHT22;717;51.522;7.266;2023-03-07T06:29:34;7.30;99.90
1447;DHT22;717;51.522;7.266;2023-03-07T06:32:05;7.30;99.90
1447;DHT22;717;51.522;7.266;2023-03-07T06:34:36;7.40;99.90
1447;DHT22;717;51.522;7.266;2023-03-07T06:37:04;7.30;99.90
1447;DHT22;717;51.522;7.266;2023-03-07T06:39:34;7.30;99.90
1447;DHT22;717;51.522;7.266;2023-03-07T06:42:02;7.30;99.90
1447;DHT22;717;51.522;7.266;2023-03-07T06:44:31;7.30;99.90
1447;DHT22;717;51.522;7.266;2023-03-07T06:47:00;7.30;99.90
1447;DHT22;717;51.522;7.266;2023-03-07T06:49:31;7.30;99.90
1447;DHT22;717;51.522;7.266;2023-03-07T06:51:59;7.30;99.90
1447;DHT22;717;51.522;7.266;2023-03-07T06:54:29;7.40;99.90
1447;DHT22;717;51.522;7.266;2023-03-07T06:56:57;7.40;99.90
1447;DHT22;717;51.522;7.266;2023-03-07T06:59:26;7.30;99.90
1447;DHT22;717;51.522;7.266;2023-03-07T07:01:54;7.20;99.90
1447;DHT22;717;51.522;7.266;2023-03-07T07:04:23;7.20;99.90
1447;DHT22;717;51.522;7.266;2023-03-07T07:06:54;7.20;99.90
1447;DHT22;717;51.522;7.266;2023-03-07T07:09:23;7.30;99.90
1447;DHT22;717;51.522;7.266;2023-03-07T07:11:51;7.30;99.90
1447;DHT22;717;51.522;7.266;2023-03-07T07:14:20;7.40;99.90
1447;DHT22;717;51.522;7.266;2023-03-07T07:16:49;7.40;99.90
1447;DHT22;717;51.522;7.266;2023-03-07T07:19:17;7.40;99.90
1447;DHT22;717;51.522;7.266;2023-03-07T07:21:46;7.30;99.90
1447;DHT22;717;51.522;7.266;2023-03-07T07:24:17;7.30;99.90
1447;DHT22;717;51.522;7.266;2023-03-07T07:26:46;7.20;99.90
1447;DHT22;717;51.522;7.266;2023-03-07T07:29:15;7.20;99.90
1447;DHT22;717;51.522;7.266;2023-03-07T07:31:44;7.30;99.90
1447;DHT22;717;51.522;7.266;2023-03-07T07:34:14;7.20;99.90
1447;DHT22;717;51.522;7.266;2023-03-07T07:36:42;7.20;99.90
1447;DHT22;717;51.522;7.266;2023-03-07T07:39:12;7.20;99.90
1447;DHT22;717;51.522;7.266;2023-03-07T07:41:45;7.10;99.90
1447;DHT22;717;51.522;7.266;2023-03-07T07:44:13;7.20;99.90
1447;DHT22;717;51.522;7.266;2023-03-07T07:46:42;7.20;99.90
1447;DHT22;717;51.522;7.266;2023-03-07T07:49:10;7.20;99.90
1447;DHT22;717;51.522;7.266;2023-03-07T07:51:39;7.20;99.90
1447;DHT22;717;51.522;7.266;2023-03-07T07:54:08;7.20;99.90
1447;DHT22;717;51.522;7.266;2023-03-07T07:56:36;7.20;99.90
1447;DHT22;717;51.522;7.266;2023-03-07T07:59:08;7.20;99.90
1447;DHT22;717;51.522;7.266;2023-03-07T08:01:37;7.20;99.90
1447;DHT22;717;51.522;7.266;2023-03-07T08:04:05;7.20;99.90
1447;DHT22;717;51.522;7.266;2023-03-07T08:06:34;7.20;99.90
1447;DHT22;717;51.522;7.266;2023-03-07T08:09:03;7.20;99.90
1447;DHT22;717;51.522;7.266;2023-03-07T08:11:32;7.30;99.90
1447;DHT22;717;51.522;7.266;2023-03-07T08:14:02;7.40;99.90
1447;DHT22;717;51.522;7.266;2023-03-07T08:16:33;7.50;99.90
1447;DHT22;717;51.522;7.266;2023-03-07T08:19:02;7.50;99.90
1447;DHT22;717;51.522;7.266;2023-03-07T08:21:31;7.50;99.90
1447;DHT22;717;51.522;7.266;2023-03-07T08:23:59;7.50;99.90
1447;DHT22;717;51.522;7.266;2023-03-07T08:26:28;7.60;99.90
1447;DHT22;717;51.522;7.266;2023-03-07T08:28:57;7.50;99.90
1447;DHT22;717;51.522;7.266;2023-03-07T08:31:26;7.40;99.90
1447;DHT22;717;51.522;7.266;2023-03-07T08:33:57;7.40;99.90
1447;DHT22;717;51.522;7.266;2023-03-07T08:36:26;7.50;99.90
1447;DHT22;717;51.522;7.266;2023-03-07T08:38:54;7.50;99.90
1447;DHT22;717;51.522;7.266;2023-03-07T08:41:23;7.60;99.90
1447;DHT22;717;51.522;7.266;2023-03-07T08:43:52;7.70;99.90
1447;DHT22;717;51.522;7.266;2023-03-07T08:46:21;7.70;99.90
1447;DHT22;717;51.522;7.266;2023-03-07T08:48:50;7.70;99.90
1447;DHT22;717;51.522;7.266;2023-03-07T08:51:21;7.70;99.90
1447;DHT22;717;51.522;7.266;2023-03-07T08:53:50;7.80;99.90
1447;DHT22;717;51.522;7.266;2023-03-07T08:56:18;7.80;99.90
1447;DHT22;717;51.522;7.266;2023-03-07T08:58:50;7.80;99.90
1447;DHT22;717;51.522;7.266;2023-03-07T09:01:19;7.90;99.90
1447;DHT22;717;51.522;7.266;2023-03-07T09:03:48;7.90;99.90
1447;DHT22;717;51.522;7.266;2023-03-07T09:06:17;8.00;99.90
1447;DHT22;717;51.522;7.266;2023-03-07T09:08:49;8.00;99.90
1447;DHT22;717;51.522;7.266;2023-03-07T09:11:19;8.00;99.90
1447;DHT22;717;51.522;7.266;2023-03-07T09:13:48;7.90;99.90
1447;DHT22;717;51.522;7.266;2023-03-07T09:16:16;7.90;99.90
1447;DHT22;717;51.522;7.266;2023-03-07T09:18:45;7.80;99.90
1447;DHT22;717;51.522;7.266;2023-03-07T09:21:13;7.80;99.90
1447;DHT22;717;51.522;7.266;2023-03-07T09:23:42;7.90;99.90
1447;DHT22;717;51.522;7.266;2023-03-07T09:26:14;7.90;99.90
1447;DHT22;717;51.522;7.266;2023-03-07T09:28:42;7.80;99.90
1447;DHT22;717;51.522;7.266;2023-03-07T09:31:13;7.80;99.90
1447;DHT22;717;51.522;7.266;2023-03-07T09:33:41;7.80;99.90
1447;DHT22;717;51.522;7.266;2023-03-07T09:36:11;7.80;99.90
1447;DHT22;717;51.522;7.266;2023-03-07T09:38:40;7.80;99.90
1447;DHT22;717;51.522;7.266;2023-03-07T09:41:24;7.90;99.90
1447;DHT22;717;51.522;7.266;2023-03-07T09:43:59;7.80;99.90
1447;DHT22;717;51.522;7.266;2023-03-07T09:46:34;7.80;99.90
1447;DHT22;717;51.522;7.266;2023-03-07T09:49:16;7.80;99.90
1447;DHT22;717;51.522;7.266;2023-03-07T09:51:47;7.90;99.90
1447;DHT22;717;51.522;7.266;2023-03-07T09:54:19;7.90;99.90
1447;DHT22;717;51.522;7.266;2023-03-07T09:56:53;7.90;99.90
1447;DHT22;717;51.522;7.266;2023-03-07T09:59:30;7.90;99.90
1447;DHT22;717;51.522;7.266;2023-03-07T10:02:04;7.90;99.90
1447;DHT22;717;51.522;7.266;2023-03-07T10:04:46;8.00;99.90
1447;DHT22;717;51.522;7.266;2023-03-07T10:07:16;8.00;99.90
1447;DHT22;717;51.522;7.266;2023-03-07T10:09:49;8.10;99.90
1447;DHT22;717;51.522;7.266;2023-03-07T10:12:34;8.10;99.90
1447;DHT22;717;51.522;7.266;2023-03-07T10:15:35;8.10;99.90
1447;DHT22;717;51.522;7.266;2023-03-07T10:18:16;8.20;99.90
1447;DHT22;717;51.522;7.266;2023-03-07T10:20:51;8.20;99.90
1447;DHT22;717;51.522;7.266;2023-03-07T10:23:33;8.30;99.90
1447;DHT22;717;51.522;7.266;2023-03-07T10:26:10;8.30;99.90
1447;DHT22;717;51.522;7.266;2023-03-07T10:28:43;8.30;99.90
1447;DHT22;717;51.522;7.266;2023-03-07T10:31:17;8.20;99.90
1447;DHT22;717;51.522;7.266;2023-03-07T10:33:49;8.20;99.90
1447;DHT22;717;51.522;7.266;2023-03-07T10:36:19;8.30;99.90
1447;DHT22;717;51.522;7.266;2023-03-07T10:38:57;8.30;99.90
1447;DHT22;717;51.522;7.266;2023-03-07T10:41:28;8.20;99.90
1447;DHT22;717;51.522;7.266;2023-03-07T10:43:59;8.20;99.90
1447;DHT22;717;51.522;7.266;2023-03-07T10:46:29;8.10;99.90
1447;DHT22;717;51.522;7.266;2023-03-07T10:49:07;8.10;99.90
1447;DHT22;717;51.522;7.266;2023-03-07T10:51:46;8.10;99.90
1447;DHT22;717;51.522;7.266;2023-03-07T10:54:19;8.00;99.90
1447;DHT22;717;51.522;7.266;2023-03-07T10:57:04;8.00;99.90
1447;DHT22;717;51.522;7.266;2023-03-07T10:59:37;8.00;99.90
1447;DHT22;717;51.522;7.266;2023-03-07T11:02:30;8.10;99.90
1447;DHT22;717;51.522;7.266;2023-03-07T11:04:59;8.10;99.90
1447;DHT22;717;51.522;7.266;2023-03-07T11:07:30;8.10;99.90
1447;DHT22;717;51.522;7.266;2023-03-07T11:10:01;8.00;99.90
1447;DHT22;717;51.522;7.266;2023-03-07T11:12:30;8.00;99.90
1447;DHT22;717;51.522;7.266;2023-03-07T11:15:14;8.00;99.90
1447;DHT22;717;51.522;7.266;2023-03-07T11:17:47;8.00;99.90
1447;DHT22;717;51.522;7.266;2023-03-07T11:20:19;8.10;99.90
1447;DHT22;717;51.522;7.266;2023-03-07T11:22:49;8.00;99.90
1447;DHT22;717;51.522;7.266;2023-03-07T11:25:20;8.00;99.90
1447;DHT22;717;51.522;7.266;2023-03-07T11:27:52;8.00;99.90
1447;DHT22;717;51.522;7.266;2023-03-07T11:30:27;8.00;99.90
1447;DHT22;717;51.522;7.266;2023-03-07T11:33:07;8.00;99.90
1447;DHT22;717;51.522;7.266;2023-03-07T11:35:55;8.00;99.90
1447;DHT22;717;51.522;7.266;2023-03-07T11:38:33;8.00;99.90
1447;DHT22;717;51.522;7.266;2023-03-07T11:41:06;7.90;99.90
1447;DHT22;717;51.522;7.266;2023-03-07T11:43:51;7.90;99.90
1447;DHT22;717;51.522;7.266;2023-03-07T11:46:30;7.80;99.90
1447;DHT22;717;51.522;7.266;2023-03-07T11:49:12;7.80;99.90
1447;DHT22;717;51.522;7.266;2023-03-07T11:51:51;7.80;99.90
1447;DHT22;717;51.522;7.266;2023-03-07T11:54:29;7.70;99.90
1447;DHT22;717;51.522;7.266;2023-03-07T11:57:12;7.70;99.90
1447;DHT22;717;51.522;7.266;2023-03-07T12:00:13;7.70;99.90
1447;DHT22;717;51.522;7.266;2023-03-07T12:03:08;7.70;99.90
1447;DHT22;717;51.522;7.266;2023-03-07T12:05:54;7.70;99.90
1447;DHT22;717;51.522;7.266;2023-03-07T12:08:47;7.50;99.90
1447;DHT22;717;51.522;7.266;2023-03-07T12:11:27;7.50;99.90
1447;DHT22;717;51.522;7.266;2023-03-07T12:14:10;7.50;99.90
1447;DHT22;717;51.522;7.266;2023-03-07T12:16:48;7.60;99.90
1447;DHT22;717;51.522;7.266;2023-03-07T12:19:47;7.60;99.90
1447;DHT22;717;51.522;7.266;2023-03-07T12:22:28;7.70;99.90
1447;DHT22;717;51.522;7.266;2023-03-07T12:25:10;7.70;99.90
1447;DHT22;717;51.522;7.266;2023-03-07T12:27:48;7.80;99.90
1447;DHT22;717;51.522;7.266;2023-03-07T12:30:20;7.70;99.90
1447;DHT22;717;51.522;7.266;2023-03-07T12:32:50;7.70;99.90
1447;DHT22;717;51.522;7.266;2023-03-07T12:35:26;7.70;99.90
1447;DHT22;717;51.522;7.266;2023-03-07T12:38:01;7.80;99.90
1447;DHT22;717;51.522;7.266;2023-03-07T12:40:35;7.80;99.90
1447;DHT22;717;51.522;7.266;2023-03-07T12:43:12;7.80;99.90
1447;DHT22;717;51.522;7.266;2023-03-07T12:45:46;7.80;99.90
1447;DHT22;717;51.522;7.266;2023-03-07T12:48:19;7.80;99.90
1447;DHT22;717;51.522;7.266;2023-03-07T12:50:56;7.70;99.90
1447;DHT22;717;51.522;7.266;2023-03-07T12:53:33;7.70;99.90
1447;DHT22;717;51.522;7.266;2023-03-07T12:56:05;7.80;99.90
1447;DHT22;717;51.522;7.266;2023-03-07T12:58:43;7.70;99.90
1447;DHT22;717;51.522;7.266;2023-03-07T13:01:17;7.70;99.90
1447;DHT22;717;51.522;7.266;2023-03-07T13:03:51;7.60;99.90
1447;DHT22;717;51.522;7.266;2023-03-07T13:06:25;7.60;99.90
1447;DHT22;717;51.522;7.266;2023-03-07T13:08:57;7.70;99.90
1447;DHT22;717;51.522;7.266;2023-03-07T13:11:29;7.70;99.90
1447;DHT22;717;51.522;7.266;2023-03-07T13:13:58;7.70;99.90
1447;DHT22;717;51.522;7.266;2023-03-07T13:16:32;7.70;99.90
1447;DHT22;717;51.522;7.266;2023-03-07T13:22:03;7.70;99.90
1447;DHT22;717;51.522;7.266;2023-03-07T13:24:52;7.70;99.90
1447;DHT22;717;51.522;7.266;2023-03-07T13:27:23;7.80;99.90
1447;DHT22;717;51.522;7.266;2023-03-07T13:30:16;7.80;99.90
1447;DHT22;717;51.522;7.266;2023-03-07T13:32:55;7.70;99.90
1447;DHT22;717;51.522;7.266;2023-03-07T13:35:51;7.70;99.90
1447;DHT22;717;51.522;7.266;2023-03-07T13:38:31;7.70;99.90
1447;DHT22;717;51.522;7.266;2023-03-07T13:40:59;7.60;99.90
1447;DHT22;717;51.522;7.266;2023-03-07T13:55:37;7.60;99.90
1447;DHT22;717;51.522;7.266;2023-03-07T13:58:16;7.60;99.90
1447;DHT22;717;51.522;7.266;2023-03-07T14:00:51;7.70;99.90
1447;DHT22;717;51.522;7.266;2023-03-07T14:03:30;7.70;99.90
1447;DHT22;717;51.522;7.266;2023-03-07T14:06:02;7.70;99.90
1447;DHT22;717;51.522;7.266;2023-03-07T14:08:35;7.80;99.90
1447;DHT22;717;51.522;7.266;2023-03-07T14:11:15;7.80;99.90
1447;DHT22;717;51.522;7.266;2023-03-07T14:17:06;7.90;99.90
1447;DHT22;717;51.522;7.266;2023-03-07T14:19:52;7.90;99.90
1447;DHT22;717;51.522;7.266;2023-03-07T14:22:39;7.90;99.90
1447;DHT22;717;51.522;7.266;2023-03-07T14:25:15;8.00;99.90
1447;DHT22;717;51.522;7.266;2023-03-07T14:27:51;8.00;99.90
1447;DHT22;717;51.522;7.266;2023-03-07T14:30:22;8.00;99.90
1447;DHT22;717;51.522;7.266;2023-03-07T14:32:51;8.00;99.90
1447;DHT22;717;51.522;7.266;2023-03-07T14:35:40;7.90;99.90
1447;DHT22;717;51.522;7.266;2023-03-07T14:38:16;7.80;99.90
1447;DHT22;717;51.522;7.266;2023-03-07T14:43:54;7.80;99.90
1447;DHT22;717;51.522;7.266;2023-03-07T14:46:33;7.80;99.90
1447;DHT22;717;51.522;7.266;2023-03-07T14:49:15;7.80;99.90
1447;DHT22;717;51.522;7.266;2023-03-07T14:51:49;7.90;99.90
1447;DHT22;717;51.522;7.266;2023-03-07T14:54:21;8.00;99.90
1447;DHT22;717;51.522;7.266;2023-03-07T14:56:52;8.00;99.90
1447;DHT22;717;51.522;7.266;2023-03-07T14:59:24;7.90;99.90
1447;DHT22;717;51.522;7.266;2023-03-07T15:01:52;7.90;99.90
1447;DHT22;717;51.522;7.266;2023-03-07T15:04:23;7.90;99.90
1447;DHT22;717;51.522;7.266;2023-03-07T15:06:54;7.90;99.90
1447;DHT22;717;51.522;7.266;2023-03-07T15:09:23;7.80;99.90
1447;DHT22;717;51.522;7.266;2023-03-07T15:11:58;7.90;99.90
1447;DHT22;717;51.522;7.266;2023-03-07T15:14:37;7.80;99.90
1447;DHT22;717;51.522;7.266;2023-03-07T15:17:12;7.70;99.90
1447;DHT22;717;51.522;7.266;2023-03-07T15:19:45;7.70;99.90
1447;DHT22;717;51.522;7.266;2023-03-07T15:22:17;7.60;99.90
1447;DHT22;717;51.522;7.266;2023-03-07T15:24:47;7.60;99.90
1447;DHT22;717;51.522;7.266;2023-03-07T15:27:22;7.60;99.90
1447;DHT22;717;51.522;7.266;2023-03-07T15:29:54;7.60;99.90
1447;DHT22;717;51.522;7.266;2023-03-07T15:32:30;7.60;99.90
1447;DHT22;717;51.522;7.266;2023-03-07T15:34:59;7.60;99.90
1447;DHT22;717;51.522;7.266;2023-03-07T15:37:30;7.60;99.90
1447;DHT22;717;51.522;7.266;2023-03-07T15:40:00;7.60;99.90
1447;DHT22;717;51.522;7.266;2023-03-07T15:42:29;7.60;99.90
1447;DHT22;717;51.522;7.266;2023-03-07T15:45:02;7.70;99.90
1447;DHT22;717;51.522;7.266;2023-03-07T15:47:33;7.70;99.90
1447;DHT22;717;51.522;7.266;2023-03-07T15:50:03;7.70;99.90
1447;DHT22;717;51.522;7.266;2023-03-07T15:52:35;7.70;99.90
1447;DHT22;717;51.522;7.266;2023-03-07T15:55:14;7.80;99.90
1447;DHT22;717;51.522;7.266;2023-03-07T15:57:48;7.90;99.90
1447;DHT22;717;51.522;7.266;2023-03-07T16:00:24;7.70;99.90
1447;DHT22;717;51.522;7.266;2023-03-07T16:03:17;7.80;99.90
1447;DHT22;717;51.522;7.266;2023-03-07T16:05:47;7.80;99.90
1447;DHT22;717;51.522;7.266;2023-03-07T16:08:17;7.90;99.90
1447;DHT22;717;51.522;7.266;2023-03-07T16:10:49;7.90;99.90
1447;DHT22;717;51.522;7.266;2023-03-07T16:13:21;7.80;99.90
1447;DHT22;717;51.522;7.266;2023-03-07T16:16:04;7.80;99.90
1447;DHT22;717;51.522;7.266;2023-03-07T16:18:34;7.70;99.90
1447;DHT22;717;51.522;7.266;2023-03-07T16:21:03;7.60;99.90
1447;DHT22;717;51.522;7.266;2023-03-07T16:23:32;7.60;99.90
1447;DHT22;717;51.522;7.266;2023-03-07T16:26:02;7.60;99.90
1447;DHT22;717;51.522;7.266;2023-03-07T16:28:31;7.60;99.90
1447;DHT22;717;51.522;7.266;2023-03-07T16:31:03;7.60;99.90
1447;DHT22;717;51.522;7.266;2023-03-07T16:33:31;7.60;99.90
1447;DHT22;717;51.522;7.266;2023-03-07T16:36:00;7.60;99.90
1447;DHT22;717;51.522;7.266;2023-03-07T16:38:28;7.60;99.90
1447;DHT22;717;51.522;7.266;2023-03-07T16:40:57;7.50;99.90
1447;DHT22;717;51.522;7.266;2023-03-07T16:43:33;7.40;99.90
1447;DHT22;717;51.522;7.266;2023-03-07T16:46:11;7.40;99.90
1447;DHT22;717;51.522;7.266;2023-03-07T16:48:41;7.40;99.90
1447;DHT22;717;51.522;7.266;2023-03-07T16:51:13;7.50;99.90
1447;DHT22;717;51.522;7.266;2023-03-07T16:53:44;7.50;99.90
1447;DHT22;717;51.522;7.266;2023-03-07T16:56:16;7.60;99.90
1447;DHT22;717;51.522;7.266;2023-03-07T16:58:47;7.60;99.90
1447;DHT22;717;51.522;7.266;2023-03-07T17:01:18;7.70;99.90
1447;DHT22;717;51.522;7.266;2023-03-07T17:03:46;7.70;99.90
1447;DHT22;717;51.522;7.266;2023-03-07T17:06:15;7.80;99.90
1447;DHT22;717;51.522;7.266;2023-03-07T17:08:44;7.70;99.90
1447;DHT22;717;51.522;7.266;2023-03-07T17:11:17;7.70;99.90
1447;DHT22;717;51.522;7.266;2023-03-07T17:13:48;7.80;99.90
1447;DHT22;717;51.522;7.266;2023-03-07T17:16:20;7.80;99.90
1447;DHT22;717;51.522;7.266;2023-03-07T17:18:49;7.80;99.90
1447;DHT22;717;51.522;7.266;2023-03-07T17:21:19;7.90;99.90
1447;DHT22;717;51.522;7.266;2023-03-07T17:23:48;7.90;99.90
1447;DHT22;717;51.522;7.266;2023-03-07T17:26:20;8.00;99.90